createdAt,value
2022-10-17T00:02:58.385Z,18.97
2022-10-17T00:06:05.985Z,20.47
2022-10-17T00:09:09.651Z,10.47
2022-10-17T00:12:13.934Z,19.63
2022-10-17T00:15:17.998Z,11.33
2022-10-17T00:18:21.161Z,11.83
2022-10-17T00:21:25.449Z,15.43
2022-10-17T00:24:28.154Z,13.47
2022-10-17T00:27:32.577Z,10.97
2022-10-17T00:30:35.552Z,11.10
2022-10-17T00:33:39.217Z,14.97
2022-10-17T00:36:41.986Z,9.40
2022-10-17T00:39:45.014Z,14.73
2022-10-17T00:42:51.235Z,11.53
2022-10-17T00:45:54.311Z,10.43
2022-10-17T00:48:59.756Z,12.50
2022-10-17T00:52:05.855Z,11.70
2022-10-17T00:55:15.128Z,9.93
2022-10-17T00:58:20.118Z,8.90
2022-10-17T01:01:23.019Z,9.80
2022-10-17T01:04:25.811Z,11.77
2022-10-17T01:07:33.171Z,12.97
2022-10-17T01:10:50.540Z,11.13
2022-10-17T01:13:59.692Z,9.67
2022-10-17T01:17:12.853Z,9.10
2022-10-17T01:20:48.959Z,17.33
2022-10-17T01:24:25.817Z,14.57
2022-10-17T01:27:50.338Z,14.83
2022-10-17T01:31:00.671Z,9.83
2022-10-17T01:34:09.946Z,8.63
2022-10-17T01:37:19.369Z,7.33
2022-10-17T01:40:28.307Z,6.73
2022-10-17T01:43:39.010Z,7.80
2022-10-17T01:46:48.418Z,13.73
2022-10-17T01:49:55.137Z,10.53
2022-10-17T01:53:03.719Z,10.43
2022-10-17T01:56:09.272Z,11.23
2022-10-17T01:59:15.642Z,22.10
2022-10-17T02:02:22.338Z,9.97
2022-10-17T02:05:28.849Z,14.30
2022-10-17T02:08:43.218Z,17.77
2022-10-17T02:11:55.202Z,12.97
2022-10-17T02:15:11.194Z,10.53
2022-10-17T02:18:31.494Z,14.33
2022-10-17T02:21:46.236Z,9.03
2022-10-17T02:24:53.760Z,15.47
2022-10-17T02:28:03.324Z,19.80
2022-10-17T02:31:13.492Z,18.43
2022-10-17T02:34:21.261Z,11.43
2022-10-17T02:37:29.162Z,8.80
2022-10-17T02:40:33.273Z,8.20
2022-10-17T02:43:38.412Z,12.90
2022-10-17T02:46:43.835Z,17.47
2022-10-17T02:49:52.471Z,11.63
2022-10-17T02:53:00.560Z,10.77
2022-10-17T02:56:10.975Z,14.17
2022-10-17T02:59:16.831Z,14.90
2022-10-17T03:02:19.976Z,12.93
2022-10-17T03:05:27.180Z,11.87
2022-10-17T03:08:30.000Z,8.20
2022-10-17T03:11:33.177Z,15.30
2022-10-17T03:14:36.061Z,8.27
2022-10-17T03:17:39.298Z,15.10
2022-10-17T03:20:43.504Z,21.67
2022-10-17T03:23:46.498Z,12.67
2022-10-17T03:26:49.243Z,20.70
2022-10-17T03:29:52.351Z,19.33
2022-10-17T03:32:55.318Z,21.23
2022-10-17T03:35:59.403Z,10.93
2022-10-17T03:39:02.128Z,8.93
2022-10-17T03:42:05.374Z,13.70
2022-10-17T03:45:08.793Z,11.50
2022-10-17T03:48:11.870Z,10.43
2022-10-17T03:51:16.798Z,12.50
2022-10-17T03:54:19.567Z,10.23
2022-10-17T03:57:22.514Z,22.77
2022-10-17T04:00:25.302Z,12.37
2022-10-17T04:03:28.054Z,13.37
2022-10-17T04:06:32.286Z,15.10
2022-10-17T04:09:35.390Z,16.63
2022-10-17T04:12:38.446Z,14.17
2022-10-17T04:15:41.142Z,14.97
2022-10-17T04:18:44.941Z,7.43
2022-10-17T04:21:49.246Z,22.47
2022-10-17T04:24:52.272Z,20.40
2022-10-17T04:27:55.258Z,12.30
2022-10-17T04:30:58.880Z,10.90
2022-10-17T04:34:02.162Z,11.87
2022-10-17T04:37:06.468Z,9.60
2022-10-17T04:40:10.547Z,19.00
2022-10-17T04:43:13.486Z,13.47
2022-10-17T04:46:16.628Z,12.30
2022-10-17T04:49:19.566Z,14.57
2022-10-17T04:52:25.398Z,14.37
2022-10-17T04:55:28.175Z,22.37
2022-10-17T04:58:31.166Z,8.67
2022-10-17T05:01:34.108Z,13.80
2022-10-17T05:04:37.000Z,10.93
2022-10-17T05:07:42.466Z,14.53
2022-10-17T05:10:47.367Z,6.40
2022-10-17T05:13:54.583Z,11.27
2022-10-17T05:16:57.422Z,13.33
2022-10-17T05:20:00.202Z,19.93
2022-10-17T05:23:05.063Z,18.83
2022-10-17T05:26:07.841Z,15.20
2022-10-17T05:29:11.208Z,10.10
2022-10-17T05:32:14.001Z,12.03
2022-10-17T05:35:17.095Z,21.10
2022-10-17T05:38:21.198Z,19.30
2022-10-17T05:41:24.319Z,13.47
2022-10-17T05:44:27.361Z,11.63
2022-10-17T05:47:30.285Z,8.00
2022-10-17T05:50:33.680Z,14.73
2022-10-17T05:53:40.410Z,12.77
2022-10-17T05:56:43.368Z,12.90
2022-10-17T05:59:46.075Z,7.67
2022-10-17T06:02:49.544Z,13.23
2022-10-17T06:05:52.457Z,14.13
2022-10-17T06:08:56.802Z,17.37
2022-10-17T06:11:59.593Z,12.70
2022-10-17T06:15:02.620Z,12.23
2022-10-17T06:18:05.881Z,17.77
2022-10-17T06:21:11.130Z,20.30
2022-10-17T06:24:15.546Z,17.73
2022-10-17T06:27:18.275Z,23.33
2022-10-17T06:30:21.014Z,10.43
2022-10-17T06:33:23.990Z,11.20
2022-10-17T06:36:27.123Z,19.67
2022-10-17T06:39:34.204Z,20.73
2022-10-17T06:42:36.944Z,12.70
2022-10-17T06:45:40.631Z,14.57
2022-10-17T06:48:43.666Z,14.67
2022-10-17T06:51:46.850Z,17.80
2022-10-17T06:54:52.027Z,7.97
2022-10-17T06:57:58.136Z,15.90
2022-10-17T07:01:02.005Z,10.13
2022-10-17T07:04:05.289Z,10.23
2022-10-17T07:07:08.229Z,10.10
2022-10-17T07:10:12.782Z,9.83
2022-10-17T07:13:16.070Z,10.37
2022-10-17T07:16:18.864Z,12.70
2022-10-17T07:19:21.907Z,7.80
2022-10-17T07:22:24.943Z,7.80
2022-10-17T07:25:29.832Z,8.10
2022-10-17T07:28:32.782Z,7.87
2022-10-17T07:31:35.609Z,13.00
2022-10-17T07:34:38.361Z,11.73
2022-10-17T07:37:41.854Z,13.40
2022-10-17T07:40:46.233Z,10.93
2022-10-17T07:43:49.075Z,8.40
2022-10-17T07:46:51.999Z,8.20
2022-10-17T07:49:54.732Z,11.90
2022-10-17T07:52:57.767Z,11.77
2022-10-17T07:56:05.607Z,10.50
2022-10-17T07:59:09.549Z,6.43
2022-10-17T08:02:21.887Z,5.93
2022-10-17T08:05:24.610Z,7.33
2022-10-17T08:08:28.277Z,7.73
2022-10-17T08:11:32.893Z,7.73
2022-10-17T08:14:35.799Z,4.77
2022-10-17T08:17:39.484Z,5.47
2022-10-17T08:20:42.562Z,6.20
2022-10-17T08:23:45.592Z,5.60
2022-10-17T08:26:51.880Z,4.87
2022-10-17T08:29:55.122Z,6.53
2022-10-17T08:32:58.058Z,6.73
2022-10-17T08:36:01.984Z,4.50
2022-10-17T08:39:05.487Z,3.77
2022-10-17T08:42:28.341Z,6.67
2022-10-17T08:45:34.983Z,5.70
2022-10-17T08:48:44.087Z,7.60
2022-10-17T08:51:53.958Z,4.13
2022-10-17T08:54:57.064Z,8.53
2022-10-17T08:58:01.964Z,6.77
2022-10-17T09:01:13.170Z,4.93
2022-10-17T09:04:52.073Z,4.47
2022-10-17T09:08:06.922Z,5.37
2022-10-17T09:11:22.101Z,6.87
2022-10-17T09:14:44.520Z,4.27
2022-10-17T09:17:53.922Z,2.60
2022-10-17T09:21:00.404Z,5.43
2022-10-17T09:24:15.790Z,3.50
2022-10-17T09:27:24.411Z,3.17
2022-10-17T09:30:51.277Z,7.33
2022-10-17T09:33:57.114Z,7.03
2022-10-17T09:37:01.920Z,3.70
2022-10-17T09:40:08.945Z,2.30
2022-10-17T09:43:14.669Z,3.10
2022-10-17T09:46:25.941Z,4.73
2022-10-17T09:49:33.585Z,3.37
2022-10-17T09:52:40.714Z,4.93
2022-10-17T09:55:47.815Z,2.80
2022-10-17T09:58:52.869Z,2.20
2022-10-17T10:02:09.597Z,2.97
2022-10-17T10:05:17.720Z,2.80
2022-10-17T10:08:21.159Z,6.23
2022-10-17T10:11:27.442Z,4.87
2022-10-17T10:14:33.591Z,3.67
2022-10-17T10:17:41.666Z,3.57
2022-10-17T10:20:47.285Z,2.20
2022-10-17T10:24:06.762Z,4.47
2022-10-17T10:27:15.877Z,2.40
2022-10-17T10:30:20.386Z,4.00
2022-10-17T10:33:28.537Z,5.53
2022-10-17T10:36:55.203Z,2.70
2022-10-17T10:39:59.657Z,1.90
2022-10-17T10:43:05.548Z,8.67
2022-10-17T10:46:19.426Z,2.10
2022-10-17T10:49:34.163Z,2.40
2022-10-17T10:52:44.847Z,4.13
2022-10-17T10:55:51.491Z,4.83
2022-10-17T10:58:59.651Z,2.77
2022-10-17T11:02:11.788Z,3.70
2022-10-17T11:05:23.206Z,3.60
2022-10-17T11:08:32.711Z,3.37
2022-10-17T11:11:40.574Z,1.53
2022-10-17T11:14:48.044Z,1.83
2022-10-17T11:17:58.536Z,2.00
2022-10-17T11:21:11.525Z,5.93
2022-10-17T11:24:22.786Z,4.63
2022-10-17T11:27:26.642Z,4.73
2022-10-17T11:30:50.367Z,4.67
2022-10-17T11:33:58.620Z,4.10
2022-10-17T11:37:11.002Z,6.37
2022-10-17T11:40:23.592Z,1.87
2022-10-17T11:43:33.823Z,2.53
2022-10-17T11:46:38.817Z,4.67
2022-10-17T11:49:49.943Z,5.27
2022-10-17T11:53:02.337Z,18.03
2022-10-17T11:56:05.719Z,5.37
2022-10-17T11:59:30.892Z,5.03
2022-10-17T12:02:43.456Z,7.57
2022-10-17T12:05:54.201Z,4.03
2022-10-17T12:09:06.171Z,2.77
2022-10-17T12:12:09.507Z,2.10
2022-10-17T12:15:32.191Z,2.03
2022-10-17T12:18:34.986Z,3.93
2022-10-17T12:21:56.331Z,4.70
2022-10-17T12:25:02.846Z,3.47
2022-10-17T12:28:14.495Z,2.50
2022-10-17T12:31:29.669Z,5.33
2022-10-17T12:34:35.452Z,6.00
2022-10-17T12:38:01.995Z,4.20
2022-10-17T12:41:07.757Z,9.03
2022-10-17T12:44:38.021Z,2.67
2022-10-17T12:47:41.017Z,2.57
2022-10-17T12:51:34.031Z,2.30
2022-10-17T12:54:28.146Z,2.37
2022-10-17T12:57:39.589Z,2.77
2022-10-17T13:00:59.458Z,4.80
2022-10-17T13:04:11.675Z,5.03
2022-10-17T13:07:19.852Z,2.80
2022-10-17T13:13:39.188Z,1.67
2022-10-17T13:16:59.352Z,4.53
2022-10-17T13:20:02.778Z,4.13
2022-10-17T13:23:05.953Z,4.10
2022-10-17T13:26:15.410Z,3.63
2022-10-17T13:29:21.880Z,6.00
2022-10-17T13:32:25.355Z,3.97
2022-10-17T13:35:55.494Z,3.67
2022-10-17T13:38:54.049Z,4.30
2022-10-17T13:41:59.069Z,6.93
2022-10-17T13:45:03.776Z,3.40
2022-10-17T13:48:10.089Z,2.63
2022-10-17T13:51:14.045Z,3.17
2022-10-17T13:54:36.508Z,7.57
2022-10-17T13:57:39.213Z,7.57
2022-10-17T14:00:43.752Z,7.53
2022-10-17T14:03:48.979Z,2.57
2022-10-17T14:06:52.712Z,4.70
2022-10-17T14:09:55.627Z,3.90
2022-10-17T14:12:59.100Z,4.23
2022-10-17T14:16:05.027Z,6.40
2022-10-17T14:19:17.544Z,6.47
2022-10-17T14:22:27.780Z,3.97
2022-10-17T14:25:32.387Z,5.20
2022-10-17T14:28:36.057Z,5.47
2022-10-17T14:31:40.274Z,2.20
2022-10-17T14:34:43.062Z,8.13
2022-10-17T14:37:48.708Z,2.43
2022-10-17T14:40:57.531Z,7.37
2022-10-17T14:44:09.759Z,8.57
2022-10-17T14:47:42.079Z,5.40
2022-10-17T14:51:08.669Z,8.03
2022-10-17T14:54:29.138Z,6.73
2022-10-17T14:57:44.487Z,5.40
2022-10-17T15:00:47.157Z,5.73
2022-10-17T15:03:51.488Z,7.37
2022-10-17T15:06:55.893Z,4.67
2022-10-17T15:09:58.750Z,5.40
2022-10-17T15:13:26.572Z,6.63
2022-10-17T15:16:26.906Z,5.87
2022-10-17T15:19:30.987Z,8.13
2022-10-17T15:22:36.664Z,10.50
2022-10-17T15:25:40.559Z,9.67
2022-10-17T15:28:44.032Z,10.07
2022-10-17T15:31:46.890Z,19.07
2022-10-17T15:34:51.106Z,10.20
2022-10-17T15:37:54.069Z,8.20
2022-10-17T15:40:56.875Z,7.10
2022-10-17T15:44:01.072Z,4.03
2022-10-17T15:47:04.043Z,37.77
2022-10-17T15:50:13.061Z,5.87
2022-10-17T15:53:15.867Z,7.80
2022-10-17T15:56:23.228Z,8.40
2022-10-17T15:59:31.465Z,5.53
2022-10-17T16:02:34.318Z,9.97
2022-10-17T16:05:38.418Z,6.67
2022-10-17T16:08:41.578Z,19.53
2022-10-17T16:11:45.210Z,14.87
2022-10-17T16:14:47.941Z,17.57
2022-10-17T16:17:51.263Z,12.57
2022-10-17T16:20:55.532Z,12.83
2022-10-17T16:23:58.722Z,22.37
2022-10-17T16:27:01.484Z,11.37
2022-10-17T16:30:05.391Z,9.13
2022-10-17T16:33:08.092Z,10.37
2022-10-17T16:36:12.211Z,15.10
2022-10-17T16:39:14.992Z,11.57
2022-10-17T16:42:18.118Z,13.03
2022-10-17T16:45:22.593Z,19.37
2022-10-17T16:48:29.617Z,14.30
2022-10-17T16:51:35.914Z,11.80
2022-10-17T16:54:38.693Z,29.20
2022-10-17T17:00:47.757Z,16.33
2022-10-17T17:03:51.538Z,22.13
2022-10-17T17:06:55.703Z,6.17
2022-10-17T17:09:58.490Z,16.43
2022-10-17T17:13:02.090Z,12.60
2022-10-17T17:16:07.502Z,12.33
2022-10-17T17:19:14.765Z,8.50
2022-10-17T17:22:18.853Z,9.80
2022-10-17T17:25:22.968Z,10.17
2022-10-17T17:28:28.577Z,7.93
2022-10-17T17:31:33.888Z,9.23
2022-10-17T17:34:37.499Z,18.10
2022-10-17T17:37:41.832Z,20.97
2022-10-17T17:40:50.750Z,30.57
2022-10-17T17:43:54.787Z,12.47
2022-10-17T17:46:57.691Z,7.60
2022-10-17T17:50:00.700Z,45.07
2022-10-17T17:53:05.434Z,7.63
2022-10-17T17:56:10.495Z,11.30
2022-10-17T17:59:14.470Z,17.10
2022-10-17T18:02:17.747Z,9.47
2022-10-17T18:05:21.258Z,12.07
2022-10-17T18:08:25.527Z,14.30
2022-10-17T18:11:29.317Z,15.17
2022-10-17T18:14:32.299Z,21.07
2022-10-17T18:17:35.476Z,18.33
2022-10-17T18:20:41.672Z,87.70
2022-10-17T18:23:47.800Z,15.37
2022-10-17T18:26:51.094Z,19.00
2022-10-17T18:29:53.926Z,13.80
2022-10-17T18:32:56.769Z,15.03
2022-10-17T18:36:06.991Z,22.40
2022-10-17T18:39:11.413Z,20.77
2022-10-17T18:42:14.263Z,20.50
2022-10-17T18:45:17.482Z,15.83
2022-10-17T18:48:20.225Z,16.53
2022-10-17T18:51:25.239Z,15.13
2022-10-17T18:54:32.429Z,16.53
2022-10-17T18:57:35.554Z,15.40
2022-10-17T19:00:38.570Z,11.03
2022-10-17T19:03:41.318Z,10.70
2022-10-17T19:06:44.365Z,13.57
2022-10-17T19:09:49.136Z,14.33
2022-10-17T19:12:51.908Z,10.10
2022-10-17T19:15:54.641Z,13.17
2022-10-17T19:19:00.943Z,18.67
2022-10-17T19:22:04.429Z,15.87
2022-10-17T19:25:09.405Z,13.77
2022-10-17T19:28:12.404Z,11.20
2022-10-17T19:31:17.944Z,88.03
2022-10-17T19:34:21.510Z,42.60
2022-10-17T19:37:24.852Z,23.00
2022-10-17T19:40:29.101Z,17.27
2022-10-17T19:43:31.875Z,13.27
2022-10-17T19:46:35.709Z,11.23
2022-10-17T19:49:38.850Z,16.77
2022-10-17T19:52:41.941Z,11.13
2022-10-17T19:55:46.779Z,15.03
2022-10-17T19:58:51.491Z,16.63
2022-10-17T20:01:54.472Z,13.00
2022-10-17T20:05:17.190Z,13.20
2022-10-17T20:08:20.708Z,17.10
2022-10-17T20:11:27.099Z,11.43
2022-10-17T20:14:29.851Z,13.93
2022-10-17T20:17:35.887Z,305.03
2022-10-17T20:20:38.943Z,346.90
2022-10-17T20:23:43.282Z,346.67
2022-10-17T20:26:47.816Z,60.30
2022-10-17T20:29:50.585Z,40.03
2022-10-17T20:32:55.443Z,24.13
2022-10-17T20:35:59.582Z,50.30
2022-10-17T20:39:03.560Z,27.77
2022-10-17T20:42:09.468Z,183.47
2022-10-17T20:45:13.239Z,145.40
2022-10-17T20:48:17.463Z,48.50
2022-10-17T20:51:20.836Z,150.93
2022-10-17T20:54:23.832Z,67.30
2022-10-17T20:57:28.101Z,67.57
2022-10-17T21:00:31.531Z,30.43
2022-10-17T21:03:37.098Z,22.07
2022-10-17T21:06:41.636Z,25.37
2022-10-17T21:09:45.478Z,22.67
2022-10-17T21:12:53.885Z,22.00
2022-10-17T21:15:57.644Z,22.90
2022-10-17T21:19:00.967Z,31.53
2022-10-17T21:22:04.000Z,24.20
2022-10-17T21:25:07.735Z,9.93
2022-10-17T21:28:11.906Z,23.07
2022-10-17T21:31:17.872Z,18.70
2022-10-17T21:34:22.318Z,17.80
2022-10-17T21:37:25.045Z,12.10
2022-10-17T21:40:28.105Z,18.30
2022-10-17T21:43:33.462Z,20.60
2022-10-17T21:46:36.310Z,11.50
2022-10-17T21:49:39.065Z,14.50
2022-10-17T21:52:41.889Z,18.87
2022-10-17T21:55:44.668Z,12.20
2022-10-17T21:58:49.528Z,14.20
2022-10-17T22:01:52.361Z,14.17
2022-10-17T22:04:55.189Z,12.80
2022-10-17T22:07:58.908Z,12.90
2022-10-17T22:11:06.315Z,19.07
2022-10-17T22:14:13.902Z,11.77
2022-10-17T22:17:16.631Z,12.13
2022-10-17T22:20:19.388Z,15.30
2022-10-17T22:23:22.298Z,17.90
2022-10-17T22:26:25.580Z,15.90
2022-10-17T22:29:29.740Z,14.03
2022-10-17T22:32:32.585Z,17.77
2022-10-17T22:35:35.817Z,19.47
2022-10-17T22:38:38.587Z,15.23
2022-10-17T22:41:41.747Z,17.53
2022-10-17T22:44:46.860Z,9.57
2022-10-17T22:47:49.648Z,11.20
2022-10-17T22:50:53.575Z,17.93
2022-10-17T22:53:56.310Z,14.63
2022-10-17T22:56:59.384Z,12.50
2022-10-17T23:00:03.804Z,15.23
2022-10-17T23:03:06.802Z,15.90
2022-10-17T23:06:10.493Z,14.03
2022-10-17T23:09:13.665Z,16.67
2022-10-17T23:12:16.636Z,15.27
2022-10-17T23:15:20.745Z,16.40
2022-10-17T23:18:24.872Z,12.80
2022-10-17T23:21:27.616Z,15.53
2022-10-17T23:24:31.057Z,13.73
2022-10-17T23:27:35.778Z,14.20
2022-10-17T23:30:40.349Z,12.80
2022-10-17T23:33:45.254Z,18.40
2022-10-17T23:36:48.149Z,10.80
2022-10-17T23:39:50.880Z,19.23
2022-10-17T23:42:53.717Z,33.13
2022-10-17T23:45:57.817Z,29.03
2022-10-17T23:49:06.303Z,33.53
2022-10-17T23:52:09.369Z,24.40
2022-10-17T23:55:12.327Z,25.00
2022-10-17T23:58:15.115Z,13.83
